Time;durP1;ratioP1;P1;durP2;ratioP2;P2;SDS_P1;SDS_P2;PMS_P1;PMS_P2;Temp;Humidity;BMP_temperature;BMP_pressure;BME280_temperature;BME280_humidity;BME280_pressure;Samples;Min_cycle;Max_cycle;Signal;HPM_P1;HPM_P2
2024/01/26 00:02:16;;;;;;;17.75;14.88;;;10.50;99.70;;;;;;10420142;28;20256;-67
2024/01/26 00:07:21;;;;;;;19.83;16.15;;;10.60;99.70;;;;;;10415132;28;20258;-65
2024/01/26 00:12:25;;;;;;;19.00;16.00;;;10.60;99.70;;;;;;10422113;28;20771;-66
2024/01/26 00:17:29;;;;;;;19.30;15.30;;;10.60;99.90;;;;;;10419285;28;20560;-66
2024/01/26 00:22:34;;;;;;;20.17;15.90;;;10.60;99.90;;;;;;10416735;28;20232;-69
2024/01/26 00:27:37;;;;;;;19.67;16.20;;;10.60;99.90;;;;;;10418026;28;20679;-66
2024/01/26 00:32:41;;;;;;;22.67;16.80;;;10.60;99.90;;;;;;10421449;28;20270;-67
2024/01/26 00:37:46;;;;;;;20.77;16.30;;;10.70;99.90;;;;;;10424326;28;20523;-66
2024/01/26 00:42:50;;;;;;;19.33;16.95;;;10.70;99.90;;;;;;10412866;28;20313;-67
2024/01/26 00:47:53;;;;;;;22.55;18.75;;;10.70;99.90;;;;;;10419010;28;20251;-67
2024/01/26 00:52:58;;;;;;;23.42;18.27;;;10.70;99.90;;;;;;10426561;28;20256;-67
2024/01/26 00:58:02;;;;;;;23.77;17.95;;;10.70;99.90;;;;;;10417942;28;20711;-66
2024/01/26 01:03:06;;;;;;;22.80;18.23;;;10.70;99.90;;;;;;10425057;28;20264;-66
2024/01/26 01:08:11;;;;;;;23.17;18.15;;;10.70;99.90;;;;;;10415781;28;20239;-67
2024/01/26 01:13:14;;;;;;;25.95;18.75;;;10.70;99.90;;;;;;10415872;28;20259;-67
2024/01/26 01:18:18;;;;;;;22.00;17.00;;;10.70;99.90;;;;;;10409454;28;20257;-65
2024/01/26 01:23:23;;;;;;;22.73;18.75;;;10.70;99.90;;;;;;10425904;28;20706;-66
2024/01/26 01:28:27;;;;;;;26.35;20.35;;;10.70;99.90;;;;;;10425273;28;20222;-66
2024/01/26 01:33:31;;;;;;;27.17;20.00;;;10.70;99.90;;;;;;10408098;28;20315;-67
2024/01/26 01:38:36;;;;;;;25.60;20.92;;;10.70;99.90;;;;;;10423140;28;20569;-65
2024/01/26 01:43:39;;;;;;;27.50;20.42;;;10.70;99.90;;;;;;10417805;28;20240;-66
2024/01/26 01:48:43;;;;;;;24.95;19.73;;;10.80;99.90;;;;;;10424751;28;20282;-66
2024/01/26 01:53:50;;;;;;;31.60;22.20;;;10.80;99.90;;;;;;10403918;28;20252;-67
2024/01/26 01:58:54;;;;;;;24.60;20.67;;;10.80;99.90;;;;;;10421670;28;20200;-66
2024/01/26 02:04:01;;;;;;;24.50;20.23;;;10.80;99.90;;;;;;10419828;28;20215;-66
2024/01/26 02:09:06;;;;;;;29.70;21.88;;;10.80;99.90;;;;;;10373228;28;20691;-66
2024/01/26 02:14:10;;;;;;;21.55;18.55;;;10.80;99.90;;;;;;10422857;28;20267;-66
2024/01/26 02:19:15;;;;;;;23.65;18.65;;;10.80;99.90;;;;;;10432315;28;20650;-65
2024/01/26 02:24:20;;;;;;;23.40;17.90;;;10.80;99.90;;;;;;10427796;28;20228;-65
2024/01/26 02:29:24;;;;;;;20.52;18.17;;;10.80;99.90;;;;;;10424500;28;20261;-66
2024/01/26 02:34:27;;;;;;;23.17;18.42;;;10.80;99.90;;;;;;10426009;28;20305;-66
2024/01/26 02:39:33;;;;;;;19.98;17.10;;;10.80;99.90;;;;;;10415868;28;20265;-65
2024/01/26 02:44:37;;;;;;;19.77;17.10;;;10.80;99.90;;;;;;10414303;28;20774;-65
2024/01/26 02:49:43;;;;;;;21.70;16.63;;;10.90;99.90;;;;;;10414987;28;20254;-66
2024/01/26 02:54:48;;;;;;;18.08;15.00;;;10.90;99.90;;;;;;10422580;28;20333;-66
2024/01/26 02:59:51;;;;;;;19.10;15.27;;;10.90;99.90;;;;;;10439863;28;20258;-66
2024/01/26 03:04:55;;;;;;;18.80;15.00;;;10.90;99.90;;;;;;10414159;28;20252;-66
2024/01/26 03:10:00;;;;;;;19.40;14.95;;;10.90;99.90;;;;;;10428795;28;20200;-66
2024/01/26 03:15:04;;;;;;;16.42;14.07;;;10.90;99.90;;;;;;10421137;28;20228;-66
2024/01/26 03:20:09;;;;;;;16.98;12.95;;;10.90;99.90;;;;;;10429792;28;20232;-66
2024/01/26 03:25:14;;;;;;;17.38;15.18;;;11.00;99.90;;;;;;10426833;28;20294;-65
2024/01/26 03:30:17;;;;;;;17.67;13.88;;;11.00;99.90;;;;;;10427883;28;20281;-66
2024/01/26 03:35:21;;;;;;;17.88;13.85;;;11.00;99.90;;;;;;10433967;28;20247;-66
2024/01/26 03:40:27;;;;;;;17.63;13.77;;;11.00;99.90;;;;;;10423112;28;20200;-65
2024/01/26 03:45:31;;;;;;;17.75;13.88;;;11.00;99.90;;;;;;10413228;28;20686;-65
2024/01/26 03:50:35;;;;;;;18.42;13.57;;;11.00;99.90;;;;;;10421036;28;20196;-65
2024/01/26 03:55:39;;;;;;;15.50;12.30;;;11.00;99.90;;;;;;10423705;28;20683;-66
2024/01/26 04:00:43;;;;;;;14.05;11.27;;;11.00;99.90;;;;;;10425416;28;20197;-66
2024/01/26 04:05:47;;;;;;;11.82;10.63;;;11.00;99.90;;;;;;10415804;28;20216;-66
2024/01/26 04:10:52;;;;;;;12.18;10.85;;;11.00;99.90;;;;;;10420777;28;20231;-66
2024/01/26 04:15:55;;;;;;;13.85;11.68;;;11.00;99.90;;;;;;10418466;28;20260;-65
2024/01/26 04:20:59;;;;;;;13.40;11.23;;;11.00;99.90;;;;;;10411219;28;20204;-65
2024/01/26 04:26:06;;;;;;;11.38;10.15;;;11.00;99.90;;;;;;10420465;28;20224;-66
2024/01/26 04:31:10;;;;;;;11.48;10.23;;;11.00;99.90;;;;;;10423632;28;20631;-65
2024/01/26 04:36:16;;;;;;;13.05;10.25;;;11.00;99.90;;;;;;10409323;28;20697;-65
2024/01/26 04:41:21;;;;;;;12.73;9.35;;;11.00;99.90;;;;;;10405302;28;20196;-65
2024/01/26 04:46:25;;;;;;;9.88;8.88;;;11.00;99.90;;;;;;10422574;28;20224;-64
2024/01/26 04:58:13;;;;;;;8.18;7.13;;;11.00;99.90;;;;;;10383721;28;20287;-66
2024/01/26 05:03:17;;;;;;;7.95;6.43;;;11.00;99.90;;;;;;10406104;28;20231;-66
2024/01/26 05:08:21;;;;;;;7.47;5.82;;;11.10;99.90;;;;;;10408454;28;20200;-66
2024/01/26 05:13:26;;;;;;;8.30;6.00;;;11.10;99.90;;;;;;10408763;28;20228;-66
2024/01/26 05:18:29;;;;;;;9.38;5.65;;;11.10;99.90;;;;;;10408601;28;20227;-66
2024/01/26 05:23:33;;;;;;;6.78;6.07;;;11.10;99.90;;;;;;10411897;28;20698;-66
2024/01/26 05:28:39;;;;;;;6.72;6.10;;;11.20;99.90;;;;;;10412041;28;20688;-66
2024/01/26 05:33:43;;;;;;;6.18;5.57;;;11.10;99.90;;;;;;10422021;28;20247;-66
2024/01/26 05:38:46;;;;;;;7.00;5.72;;;11.20;99.90;;;;;;10406730;28;21054;-65
2024/01/26 05:43:51;;;;;;;5.85;5.25;;;11.20;99.90;;;;;;10402998;28;20772;-67
2024/01/26 05:48:57;;;;;;;5.30;4.80;;;11.20;99.90;;;;;;10407457;28;20234;-66
2024/01/26 05:54:01;;;;;;;6.60;5.10;;;11.20;99.90;;;;;;10411468;28;20223;-66
2024/01/26 05:59:06;;;;;;;5.65;3.85;;;11.20;99.90;;;;;;10412012;28;20613;-66
2024/01/26 06:04:09;;;;;;;4.32;3.70;;;11.20;99.90;;;;;;10406357;28;20805;-66
2024/01/26 06:09:13;;;;;;;4.82;3.83;;;11.30;99.90;;;;;;10401774;28;20675;-67
2024/01/26 06:14:18;;;;;;;5.22;3.65;;;11.30;99.90;;;;;;10405513;28;20251;-67
2024/01/26 06:19:22;;;;;;;4.85;3.40;;;11.30;99.90;;;;;;10405655;28;20770;-67
2024/01/26 06:24:25;;;;;;;5.60;3.72;;;11.30;99.90;;;;;;10404151;28;20286;-66
2024/01/26 06:29:30;;;;;;;4.50;3.30;;;11.30;99.90;;;;;;10403741;28;20204;-65
2024/01/26 06:34:34;;;;;;;5.40;2.95;;;11.30;99.90;;;;;;10409292;28;20216;-68
2024/01/26 06:39:38;;;;;;;3.03;2.40;;;11.30;99.90;;;;;;10420689;28;20655;-68
2024/01/26 06:44:43;;;;;;;4.28;3.33;;;11.30;99.90;;;;;;10427099;28;20219;-67
2024/01/26 06:49:46;;;;;;;4.38;2.65;;;11.30;99.90;;;;;;10426421;28;20557;-68
2024/01/26 06:54:50;;;;;;;2.47;2.13;;;11.30;99.90;;;;;;10412554;28;20254;-66
2024/01/26 06:59:55;;;;;;;4.80;2.78;;;11.40;99.90;;;;;;10407070;28;20521;-67
2024/01/26 07:04:58;;;;;;;2.45;2.25;;;11.50;99.90;;;;;;10409358;28;20727;-68
2024/01/26 07:10:02;;;;;;;2.20;2.00;;;11.50;99.90;;;;;;10406841;28;20326;-67
2024/01/26 07:15:09;;;;;;;3.42;2.00;;;11.50;99.90;;;;;;10407167;28;21251;-67
2024/01/26 07:20:13;;;;;;;2.67;1.92;;;11.50;99.90;;;;;;10404292;28;20204;-67
2024/01/26 07:25:19;;;;;;;3.17;1.45;;;11.50;99.90;;;;;;10403817;28;20286;-67
2024/01/26 07:30:24;;;;;;;2.40;1.50;;;11.50;99.90;;;;;;10412680;28;20200;-68
2024/01/26 07:35:28;;;;;;;2.38;1.55;;;11.50;99.90;;;;;;10404720;28;20252;-67
2024/01/26 07:40:32;;;;;;;1.60;1.50;;;11.50;99.90;;;;;;10389328;28;20200;-64
2024/01/26 07:45:37;;;;;;;2.97;2.00;;;11.40;99.90;;;;;;10401328;28;20568;-64
2024/01/26 07:50:41;;;;;;;1.52;1.42;;;11.50;99.90;;;;;;10411182;28;20262;-66
2024/01/26 07:55:44;;;;;;;3.20;1.92;;;11.50;99.90;;;;;;10408832;28;20744;-65
2024/01/26 08:00:50;;;;;;;2.75;1.88;;;11.40;99.90;;;;;;10413707;28;20254;-65
2024/01/26 08:05:53;;;;;;;3.50;2.50;;;11.40;99.90;;;;;;10417282;28;20220;-67
2024/01/26 08:10:57;;;;;;;5.03;2.38;;;11.30;99.90;;;;;;10416647;28;20280;-65
2024/01/26 08:16:03;;;;;;;4.82;2.72;;;11.30;99.90;;;;;;10419882;28;20252;-64
2024/01/26 08:21:07;;;;;;;6.32;3.58;;;11.30;99.90;;;;;;10419407;28;20613;-64
2024/01/26 08:26:11;;;;;;;5.43;3.63;;;11.30;99.90;;;;;;10419266;28;20313;-65
2024/01/26 08:31:16;;;;;;;19.05;8.57;;;11.20;99.90;;;;;;10406714;28;20208;-65
2024/01/26 08:36:19;;;;;;;10.25;6.20;;;11.20;99.90;;;;;;10410109;28;20695;-65
2024/01/26 08:41:23;;;;;;;5.88;5.13;;;11.20;99.90;;;;;;10410089;28;20284;-65
2024/01/26 08:46:28;;;;;;;7.47;5.97;;;11.20;99.90;;;;;;10411182;28;20200;-64
2024/01/26 08:51:32;;;;;;;6.32;4.63;;;11.20;99.90;;;;;;10406876;28;20703;-65
2024/01/26 08:56:41;;;;;;;4.85;3.65;;;11.20;99.90;;;;;;10407199;28;20622;-65
2024/01/26 09:01:46;;;;;;;6.20;4.90;;;11.30;99.90;;;;;;10415771;28;20243;-65
2024/01/26 09:06:50;;;;;;;4.45;3.80;;;11.30;99.90;;;;;;10411452;28;20803;-65
2024/01/26 09:12:02;;;;;;;5.75;4.93;;;11.30;99.90;;;;;;10412572;28;20789;-65
2024/01/26 09:17:08;;;;;;;5.40;4.90;;;11.30;99.90;;;;;;10408557;28;20278;-66
2024/01/26 09:22:12;;;;;;;6.68;4.80;;;11.40;99.90;;;;;;10404359;28;20757;-66
2024/01/26 09:27:16;;;;;;;5.32;4.93;;;11.40;99.90;;;;;;10411084;28;20204;-64
2024/01/26 09:32:21;;;;;;;6.70;5.60;;;11.50;99.90;;;;;;10414151;28;20216;-65
2024/01/26 09:37:24;;;;;;;8.10;4.93;;;11.50;99.90;;;;;;10415655;28;20231;-65
2024/01/26 09:42:28;;;;;;;6.03;4.43;;;11.50;99.90;;;;;;10406970;28;20255;-65
2024/01/26 09:47:35;;;;;;;5.18;4.40;;;11.60;99.90;;;;;;10422977;28;20205;-64
2024/01/26 09:52:40;;;;;;;4.13;3.58;;;11.60;99.90;;;;;;10401197;28;20297;-65
2024/01/26 09:57:45;;;;;;;6.60;4.93;;;11.70;99.90;;;;;;10406213;28;20248;-66
2024/01/26 10:02:50;;;;;;;4.93;4.43;;;11.70;99.90;;;;;;10396955;28;20258;-64
2024/01/26 10:07:53;;;;;;;4.60;3.85;;;11.70;99.90;;;;;;10406431;28;20795;-65
2024/01/26 10:12:57;;;;;;;4.55;3.95;;;11.80;99.90;;;;;;10401626;28;20623;-64
2024/01/26 10:18:02;;;;;;;9.02;4.72;;;11.80;99.90;;;;;;10398762;28;20318;-64
2024/01/26 10:23:06;;;;;;;4.45;4.05;;;11.80;99.90;;;;;;10398664;28;20262;-65
2024/01/26 10:28:10;;;;;;;4.95;4.45;;;11.90;99.90;;;;;;10401173;28;20718;-65
2024/01/26 10:33:15;;;;;;;4.78;4.35;;;11.90;99.90;;;;;;10404198;28;20247;-63
2024/01/26 10:38:20;;;;;;;4.90;4.50;;;12.00;99.90;;;;;;10387384;28;20772;-64
2024/01/26 10:43:25;;;;;;;4.95;4.43;;;12.00;99.90;;;;;;10401303;28;20286;-64
2024/01/26 10:48:30;;;;;;;5.40;4.40;;;12.00;99.90;;;;;;10411689;28;20704;-63
2024/01/26 10:53:35;;;;;;;6.05;5.13;;;12.00;99.90;;;;;;10409050;28;20216;-63
2024/01/26 10:58:39;;;;;;;3.33;2.95;;;12.00;99.90;;;;;;10412284;28;20270;-64
2024/01/26 11:03:44;;;;;;;3.05;1.70;;;12.00;99.90;;;;;;10380198;28;20257;-65
2024/01/26 11:08:48;;;;;;;2.42;1.27;;;11.90;99.90;;;;;;10390740;28;20224;-63
2024/01/26 11:14:01;;;;;;;2.00;1.13;;;11.80;99.90;;;;;;10403930;28;20220;-64
2024/01/26 11:19:06;;;;;;;4.40;1.17;;;11.80;99.90;;;;;;10406861;28;20703;-64
2024/01/26 11:24:18;;;;;;;7.00;1.48;;;11.70;99.90;;;;;;10414110;28;20298;-63
2024/01/26 11:29:22;;;;;;;4.22;1.27;;;11.50;99.90;;;;;;10409492;28;20224;-64
2024/01/26 11:34:27;;;;;;;5.25;1.83;;;11.40;99.90;;;;;;10411633;28;20281;-64
2024/01/26 11:39:33;;;;;;;3.50;1.40;;;11.30;99.90;;;;;;10411945;28;20251;-64
2024/01/26 11:44:41;;;;;;;5.18;0.90;;;11.20;99.90;;;;;;10406948;28;20301;-63
2024/01/26 11:49:46;;;;;;;4.05;0.90;;;11.00;99.90;;;;;;10397453;28;20566;-63
2024/01/26 11:54:50;;;;;;;4.20;0.77;;;10.80;99.60;;;;;;10401068;28;20473;-64
2024/01/26 11:59:53;;;;;;;5.97;1.83;;;10.70;99.90;;;;;;10408456;28;20251;-64
2024/01/26 12:04:59;;;;;;;8.43;2.08;;;10.70;99.90;;;;;;10399771;28;20221;-64
2024/01/26 12:10:03;;;;;;;6.82;2.20;;;10.60;99.90;;;;;;10397840;28;20279;-63
2024/01/26 12:15:09;;;;;;;4.33;1.23;;;10.60;99.90;;;;;;10402170;28;20770;-64
2024/01/26 12:20:14;;;;;;;10.73;2.65;;;10.60;99.40;;;;;;10401912;28;20215;-65
2024/01/26 12:25:18;;;;;;;3.60;1.40;;;10.70;99.80;;;;;;10413956;28;20231;-65
2024/01/26 12:30:21;;;;;;;5.35;1.40;;;10.90;97.20;;;;;;10414568;28;20208;-64
2024/01/26 12:35:27;;;;;;;7.18;1.80;;;11.10;97.10;;;;;;10403427;28;20441;-62
2024/01/26 12:40:30;;;;;;;4.25;1.15;;;11.40;95.50;;;;;;10416489;28;20251;-60
2024/01/26 12:45:34;;;;;;;8.07;1.70;;;11.30;95.30;;;;;;10423511;28;20282;-63
2024/01/26 12:50:39;;;;;;;6.18;1.27;;;11.00;94.30;;;;;;10404777;28;20590;-61
2024/01/26 12:55:43;;;;;;;6.70;1.47;;;10.80;93.20;;;;;;10423809;28;20282;-62
2024/01/26 13:00:48;;;;;;;10.45;1.50;;;10.70;93.70;;;;;;10415174;28;20274;-62
2024/01/26 13:05:53;;;;;;;5.10;1.40;;;10.70;93.20;;;;;;10413505;28;20301;-62
2024/01/26 13:10:57;;;;;;;7.80;1.53;;;10.70;91.70;;;;;;10414174;28;20864;-63
2024/01/26 13:16:00;;;;;;;7.65;1.88;;;10.60;91.20;;;;;;10409417;28;20232;-61
2024/01/26 13:21:06;;;;;;;8.07;1.80;;;10.50;90.40;;;;;;10405991;28;20289;-63
2024/01/26 13:26:10;;;;;;;5.05;1.33;;;10.40;91.30;;;;;;10412606;28;20235;-61
2024/01/26 13:31:13;;;;;;;4.70;1.33;;;10.50;92.40;;;;;;10415754;28;20251;-61
2024/01/26 13:36:21;;;;;;;7.40;1.53;;;10.50;91.40;;;;;;10417997;28;20298;-62
2024/01/26 13:41:24;;;;;;;10.07;2.53;;;10.50;90.30;;;;;;10414673;28;20259;-61
2024/01/26 13:46:28;;;;;;;5.85;1.70;;;10.40;91.20;;;;;;10404817;28;20235;-61
2024/01/26 13:51:33;;;;;;;7.90;1.67;;;10.40;91.00;;;;;;10418673;28;20615;-61
2024/01/26 13:56:37;;;;;;;11.20;1.70;;;10.40;90.80;;;;;;10409425;28;20200;-62
2024/01/26 14:01:41;;;;;;;9.03;1.73;;;10.40;89.50;;;;;;10417833;28;20254;-61
2024/01/26 14:06:46;;;;;;;7.87;1.60;;;10.30;89.50;;;;;;10409079;28;20263;-62
2024/01/26 14:11:50;;;;;;;11.48;2.20;;;10.20;87.70;;;;;;10402682;28;20234;-63
2024/01/26 14:16:54;;;;;;;8.30;2.00;;;10.10;88.20;;;;;;10409359;28;20269;-62
2024/01/26 14:21:59;;;;;;;10.37;2.17;;;10.10;86.50;;;;;;10410847;28;20223;-62
2024/01/26 14:27:03;;;;;;;7.68;1.90;;;10.00;88.70;;;;;;10416175;28;20371;-60
2024/01/26 14:32:07;;;;;;;8.57;2.30;;;10.00;89.00;;;;;;10407510;28;20285;-63
2024/01/26 14:37:12;;;;;;;8.23;2.30;;;10.00;87.70;;;;;;10418591;28;20306;-61
2024/01/26 14:42:16;;;;;;;16.27;2.83;;;10.00;87.80;;;;;;10409156;28;20586;-63
2024/01/26 14:47:20;;;;;;;10.07;1.80;;;9.90;86.90;;;;;;10407774;28;20254;-62
2024/01/26 14:52:25;;;;;;;9.25;1.95;;;9.90;86.00;;;;;;10402527;28;20755;-60
2024/01/26 14:57:29;;;;;;;8.57;1.83;;;9.80;85.60;;;;;;10414978;28;20199;-62
2024/01/26 15:02:33;;;;;;;6.50;2.27;;;9.80;88.20;;;;;;10415570;28;20224;-64
2024/01/26 15:07:39;;;;;;;4.95;1.60;;;9.80;88.30;;;;;;10416357;28;20254;-63
2024/01/26 15:12:48;;;;;;;11.75;2.17;;;9.80;86.50;;;;;;10430250;28;21709;-61
2024/01/26 15:17:52;;;;;;;12.90;2.20;;;9.80;87.40;;;;;;10416050;28;20216;-62
2024/01/26 15:22:57;;;;;;;9.07;2.60;;;9.70;88.70;;;;;;10426115;28;20231;-64
2024/01/26 15:28:00;;;;;;;10.03;2.13;;;9.70;88.60;;;;;;10446898;28;20249;-63
2024/01/26 15:33:05;;;;;;;8.53;2.37;;;9.70;89.20;;;;;;10432375;28;20246;-62
2024/01/26 15:38:10;;;;;;;8.93;2.10;;;9.70;89.90;;;;;;10421189;28;20212;-62
2024/01/26 15:43:15;;;;;;;11.93;2.37;;;9.70;89.30;;;;;;10429386;28;20227;-62
2024/01/26 15:48:18;;;;;;;11.70;1.87;;;9.60;89.00;;;;;;10405704;28;20205;-62
2024/01/26 15:53:24;;;;;;;9.70;2.70;;;9.60;87.30;;;;;;10414158;28;20311;-61
2024/01/26 15:58:27;;;;;;;8.43;1.70;;;9.50;88.20;;;;;;10411024;28;20212;-61
2024/01/26 16:03:31;;;;;;;7.00;1.90;;;9.50;87.60;;;;;;10424841;28;20265;-64
2024/01/26 16:08:37;;;;;;;8.87;2.20;;;9.40;88.20;;;;;;10422538;28;20200;-60
2024/01/26 16:13:41;;;;;;;10.23;2.33;;;9.40;88.30;;;;;;10419862;28;20765;-63
2024/01/26 16:18:46;;;;;;;12.67;2.50;;;9.40;87.90;;;;;;10421151;28;20253;-66
2024/01/26 16:23:51;;;;;;;10.87;2.83;;;9.40;89.40;;;;;;10431306;28;20729;-61
2024/01/26 16:28:55;;;;;;;10.00;2.60;;;9.40;89.00;;;;;;10427877;28;20250;-61
2024/01/26 16:33:59;;;;;;;9.77;2.50;;;9.40;88.80;;;;;;10413369;28;20251;-61
2024/01/26 16:39:04;;;;;;;10.30;2.47;;;9.40;90.00;;;;;;10420262;28;20687;-61
2024/01/26 16:44:17;;;;;;;8.50;2.37;;;9.40;89.80;;;;;;10435640;28;20219;-60
2024/01/26 16:49:21;;;;;;;7.90;2.40;;;9.40;90.00;;;;;;10432878;28;20654;-62
2024/01/26 16:54:27;;;;;;;8.40;2.30;;;9.30;89.50;;;;;;10411973;28;20648;-60
2024/01/26 16:59:31;;;;;;;10.37;3.00;;;9.30;89.50;;;;;;10417169;28;20695;-61
2024/01/26 17:04:35;;;;;;;13.45;2.70;;;9.30;89.60;;;;;;10428174;28;20219;-60
2024/01/26 17:09:40;;;;;;;8.70;2.20;;;9.30;90.00;;;;;;10429062;28;20196;-61
2024/01/26 17:14:43;;;;;;;9.27;2.50;;;9.30;89.50;;;;;;10440288;28;20717;-60
2024/01/26 17:19:50;;;;;;;10.53;2.20;;;9.20;87.60;;;;;;10423555;28;20581;-62
2024/01/26 17:24:58;;;;;;;8.90;2.00;;;9.10;89.30;;;;;;10409639;28;20227;-59
2024/01/26 17:30:01;;;;;;;9.80;2.60;;;9.10;88.30;;;;;;10416284;28;20509;-60
2024/01/26 17:35:07;;;;;;;7.85;2.17;;;9.20;87.50;;;;;;10403594;28;20277;-61
2024/01/26 17:40:12;;;;;;;8.27;2.03;;;9.20;87.90;;;;;;10409850;28;20259;-62
2024/01/26 17:45:16;;;;;;;7.90;2.13;;;9.20;87.80;;;;;;10420252;28;20290;-62
2024/01/26 17:50:20;;;;;;;9.63;2.37;;;9.20;88.70;;;;;;10437757;28;20510;-60
2024/01/26 17:55:25;;;;;;;7.10;2.33;;;9.20;88.40;;;;;;10428928;28;20270;-60
2024/01/26 18:00:28;;;;;;;7.77;2.10;;;9.10;88.20;;;;;;10429311;28;20224;-59
2024/01/26 18:05:32;;;;;;;12.57;2.60;;;9.10;88.80;;;;;;10418004;28;20627;-61
2024/01/26 18:10:37;;;;;;;10.43;2.10;;;9.00;88.90;;;;;;10423733;28;20200;-62
2024/01/26 18:15:40;;;;;;;10.83;2.33;;;9.00;89.20;;;;;;10433207;28;20281;-61
2024/01/26 18:20:44;;;;;;;8.83;2.40;;;8.90;88.30;;;;;;10426871;28;20219;-59
2024/01/26 18:25:49;;;;;;;10.63;2.60;;;8.90;89.40;;;;;;10418725;28;20232;-61
2024/01/26 18:30:53;;;;;;;12.23;4.00;;;8.90;89.20;;;;;;10426133;28;20806;-61
2024/01/26 18:35:56;;;;;;;16.73;3.57;;;9.00;90.10;;;;;;10420791;28;20244;-60
2024/01/26 18:41:02;;;;;;;13.07;3.07;;;8.90;88.60;;;;;;10436302;28;20227;-58
2024/01/26 18:46:06;;;;;;;13.67;2.77;;;8.90;88.30;;;;;;10428667;28;20281;-60
2024/01/26 18:51:10;;;;;;;9.80;2.93;;;8.80;88.30;;;;;;10419301;28;20192;-62
2024/01/26 18:56:15;;;;;;;10.10;3.40;;;8.80;88.90;;;;;;10403311;28;20243;-59
2024/01/26 19:01:19;;;;;;;14.00;3.53;;;8.70;89.20;;;;;;10410639;28;20278;-58
2024/01/26 19:06:23;;;;;;;14.17;2.63;;;8.70;88.10;;;;;;10417736;28;20220;-60
2024/01/26 19:11:29;;;;;;;13.03;2.53;;;8.70;88.50;;;;;;10413700;28;20742;-58
2024/01/26 19:16:33;;;;;;;17.40;3.00;;;8.60;88.80;;;;;;10418149;28;20251;-61
2024/01/26 19:21:37;;;;;;;12.20;2.87;;;8.60;88.00;;;;;;10402634;28;20282;-59
2024/01/26 19:26:42;;;;;;;13.77;2.83;;;8.60;88.50;;;;;;10411553;28;20660;-62
2024/01/26 19:31:46;;;;;;;13.90;3.07;;;8.60;87.90;;;;;;10405686;28;20734;-59
2024/01/26 19:36:50;;;;;;;13.70;3.53;;;8.50;88.60;;;;;;10422211;28;20200;-59
2024/01/26 19:41:55;;;;;;;15.13;2.87;;;8.50;88.70;;;;;;10425438;28;20228;-60
2024/01/26 19:46:59;;;;;;;17.30;3.37;;;8.50;88.10;;;;;;10423901;28;20275;-59
2024/01/26 19:52:03;;;;;;;15.50;3.07;;;8.40;88.60;;;;;;10413949;28;20220;-60
2024/01/26 19:57:08;;;;;;;17.73;3.07;;;8.40;88.60;;;;;;10416668;28;20667;-60
2024/01/26 20:02:12;;;;;;;14.97;3.30;;;8.30;88.80;;;;;;10424015;28;20251;-62
2024/01/26 20:07:18;;;;;;;14.00;3.23;;;8.30;88.60;;;;;;10419785;28;20235;-60
2024/01/26 20:12:24;;;;;;;16.07;4.03;;;8.20;88.90;;;;;;10422233;28;20227;-61
2024/01/26 20:17:28;;;;;;;18.87;3.37;;;8.20;89.20;;;;;;10406974;28;20909;-60
2024/01/26 20:22:32;;;;;;;15.73;3.13;;;8.20;89.20;;;;;;10425121;28;20259;-60
2024/01/26 20:27:37;;;;;;;12.47;3.03;;;8.10;89.40;;;;;;10426112;28;20346;-59
2024/01/26 20:32:40;;;;;;;16.30;3.67;;;8.10;89.40;;;;;;10426430;28;20215;-60
2024/01/26 20:37:44;;;;;;;13.57;3.67;;;8.00;89.20;;;;;;10415910;28;20196;-60
2024/01/26 20:42:49;;;;;;;13.87;3.43;;;8.00;89.20;;;;;;10416186;28;20223;-60
2024/01/26 20:47:52;;;;;;;14.70;3.43;;;7.80;88.90;;;;;;10415897;28;20263;-59
2024/01/26 20:52:56;;;;;;;14.33;3.63;;;7.80;89.00;;;;;;10422199;28;20219;-60
2024/01/26 20:58:01;;;;;;;14.93;3.57;;;7.70;89.30;;;;;;10417448;28;20246;-59
2024/01/26 21:03:07;;;;;;;23.00;3.97;;;7.70;89.40;;;;;;10412431;28;20737;-60
2024/01/26 21:08:12;;;;;;;12.77;2.90;;;7.70;89.00;;;;;;10404862;28;20561;-60
2024/01/26 21:13:17;;;;;;;19.37;4.10;;;7.60;89.80;;;;;;10402651;28;20594;-62
2024/01/26 21:18:20;;;;;;;15.60;4.30;;;7.60;89.70;;;;;;10416622;28;20211;-60
2024/01/26 21:23:24;;;;;;;18.57;5.80;;;7.60;89.90;;;;;;10404878;28;20768;-64
2024/01/26 21:28:29;;;;;;;15.27;4.53;;;7.60;90.30;;;;;;10412746;28;20708;-60
2024/01/26 21:33:33;;;;;;;18.70;5.00;;;7.60;90.20;;;;;;10410280;28;20750;-58
2024/01/26 21:38:37;;;;;;;18.17;4.20;;;7.60;90.20;;;;;;10411929;28;20253;-61
2024/01/26 21:43:41;;;;;;;18.43;4.17;;;7.60;90.00;;;;;;10418354;28;20224;-58
2024/01/26 21:48:45;;;;;;;13.33;4.03;;;7.60;90.10;;;;;;10414318;28;20681;-59
2024/01/26 21:53:49;;;;;;;17.30;4.07;;;7.60;89.80;;;;;;10420065;28;20228;-58
2024/01/26 21:58:54;;;;;;;20.73;4.80;;;7.50;90.10;;;;;;10412670;28;20258;-59
2024/01/26 22:03:58;;;;;;;12.63;4.10;;;7.50;89.90;;;;;;10411924;28;20310;-59
2024/01/26 22:09:02;;;;;;;18.03;3.83;;;7.40;89.90;;;;;;10418000;28;20230;-58
2024/01/26 22:14:07;;;;;;;14.33;3.63;;;7.40;90.20;;;;;;10414813;28;20222;-58
2024/01/26 22:19:11;;;;;;;15.10;3.93;;;7.30;90.00;;;;;;10419887;28;20668;-63
2024/01/26 22:24:15;;;;;;;16.87;3.70;;;7.30;90.20;;;;;;10421281;28;20277;-60
2024/01/26 22:29:20;;;;;;;16.93;4.10;;;7.20;90.10;;;;;;10412375;28;20657;-59
2024/01/26 22:34:23;;;;;;;13.60;4.07;;;7.20;89.80;;;;;;10417692;28;20291;-59
2024/01/26 22:39:27;;;;;;;14.20;3.40;;;7.10;90.00;;;;;;10414886;28;20838;-59
2024/01/26 22:44:32;;;;;;;13.43;3.40;;;7.10;90.10;;;;;;10419341;28;20633;-60
2024/01/26 22:49:36;;;;;;;19.00;3.80;;;7.10;90.20;;;;;;10419738;28;20237;-60
2024/01/26 22:54:40;;;;;;;16.17;3.57;;;7.10;90.30;;;;;;10421466;28;20276;-58
2024/01/26 22:59:44;;;;;;;13.73;3.50;;;7.10;90.20;;;;;;10418299;28;20747;-59
2024/01/26 23:04:48;;;;;;;13.93;3.83;;;7.10;90.60;;;;;;10404137;28;20255;-59
2024/01/26 23:09:52;;;;;;;11.73;3.30;;;7.10;90.30;;;;;;10418713;28;20253;-60
2024/01/26 23:14:57;;;;;;;12.57;3.87;;;7.10;90.40;;;;;;10420699;28;20640;-60
2024/01/26 23:20:00;;;;;;;12.27;4.07;;;7.10;90.20;;;;;;10377841;28;20246;-59
2024/01/26 23:25:06;;;;;;;12.40;3.63;;;7.00;91.00;;;;;;10428137;28;20250;-60
2024/01/26 23:30:11;;;;;;;12.03;3.70;;;7.00;90.60;;;;;;10444183;28;20204;-61
2024/01/26 23:35:15;;;;;;;14.33;4.00;;;7.00;90.40;;;;;;10424451;28;20289;-60
2024/01/26 23:40:19;;;;;;;11.90;3.63;;;6.90;90.40;;;;;;10418051;28;20207;-61
2024/01/26 23:45:24;;;;;;;15.47;3.87;;;6.90;90.40;;;;;;10431743;28;20703;-61
2024/01/26 23:50:29;;;;;;;14.03;3.60;;;6.90;90.40;;;;;;10447018;28;20203;-59
2024/01/26 23:55:32;;;;;;;15.80;4.10;;;6.90;90.50;;;;;;10426275;28;20450;-60
